sensor_id;sensor_type;location;lat;lon;timestamp;P1;P2;P0
73687;PMS7003;62257;48.376;-4.378;2022-08-21T00:01:25;4.75;2.75;2.00
73687;PMS7003;62257;48.376;-4.378;2022-08-21T00:03:53;9.00;4.25;3.25
73687;PMS7003;62257;48.376;-4.378;2022-08-21T00:06:19;6.25;5.00;4.00
73687;PMS7003;62257;48.376;-4.378;2022-08-21T00:08:45;4.00;3.00;3.00
73687;PMS7003;62257;48.376;-4.378;2022-08-21T00:11:11;5.50;3.00;3.00
73687;PMS7003;62257;48.376;-4.378;2022-08-21T00:13:36;6.50;3.50;3.00
73687;PMS7003;62257;48.376;-4.378;2022-08-21T00:16:02;6.50;3.75;3.00
73687;PMS7003;62257;48.376;-4.378;2022-08-21T00:18:28;6.75;5.50;4.50
73687;PMS7003;62257;48.376;-4.378;2022-08-21T00:20:53;6.75;6.00;4.75
73687;PMS7003;62257;48.376;-4.378;2022-08-21T00:23:19;4.00;3.25;2.25
73687;PMS7003;62257;48.376;-4.378;2022-08-21T00:25:45;4.75;4.00;3.00
73687;PMS7003;62257;48.376;-4.378;2022-08-21T00:28:10;5.25;4.25;2.50
73687;PMS7003;62257;48.376;-4.378;2022-08-21T00:30:37;6.25;4.75;3.75
73687;PMS7003;62257;48.376;-4.378;2022-08-21T00:33:04;7.00;4.50;2.50
73687;PMS7003;62257;48.376;-4.378;2022-08-21T00:35:32;4.25;3.75;3.00
73687;PMS7003;62257;48.376;-4.378;2022-08-21T00:38:01;5.75;4.50;3.50
73687;PMS7003;62257;48.376;-4.378;2022-08-21T00:40:40;3.75;2.75;2.00
73687;PMS7003;62257;48.376;-4.378;2022-08-21T00:43:06;5.75;5.00;4.00
73687;PMS7003;62257;48.376;-4.378;2022-08-21T00:45:33;4.50;3.50;3.00
73687;PMS7003;62257;48.376;-4.378;2022-08-21T00:47:59;5.50;4.75;4.00
73687;PMS7003;62257;48.376;-4.378;2022-08-21T00:50:26;4.50;3.50;3.00
73687;PMS7003;62257;48.376;-4.378;2022-08-21T00:52:55;7.25;4.25;3.25
73687;PMS7003;62257;48.376;-4.378;2022-08-21T00:55:20;3.25;3.00;2.25
73687;PMS7003;62257;48.376;-4.378;2022-08-21T00:57:49;6.75;4.00;3.00
73687;PMS7003;62257;48.376;-4.378;2022-08-21T01:00:18;4.25;3.75;2.75
73687;PMS7003;62257;48.376;-4.378;2022-08-21T01:02:48;7.75;5.00;3.75
73687;PMS7003;62257;48.376;-4.378;2022-08-21T01:05:14;5.75;5.00;4.25
73687;PMS7003;62257;48.376;-4.378;2022-08-21T01:07:41;5.50;3.50;3.00
73687;PMS7003;62257;48.376;-4.378;2022-08-21T01:10:07;5.50;2.75;2.50
73687;PMS7003;62257;48.376;-4.378;2022-08-21T01:12:34;5.25;4.00;3.00
73687;PMS7003;62257;48.376;-4.378;2022-08-21T01:15:01;3.75;3.50;3.25
73687;PMS7003;62257;48.376;-4.378;2022-08-21T01:17:29;7.75;4.75;4.00
73687;PMS7003;62257;48.376;-4.378;2022-08-21T01:19:59;7.25;3.75;2.50
73687;PMS7003;62257;48.376;-4.378;2022-08-21T01:22:29;3.25;3.25;2.25
73687;PMS7003;62257;48.376;-4.378;2022-08-21T01:24:54;3.25;3.25;3.00
73687;PMS7003;62257;48.376;-4.378;2022-08-21T01:27:20;5.75;4.00;3.00
73687;PMS7003;62257;48.376;-4.378;2022-08-21T01:29:57;5.50;4.25;2.50
73687;PMS7003;62257;48.376;-4.378;2022-08-21T01:32:32;6.25;4.75;3.25
73687;PMS7003;62257;48.376;-4.378;2022-08-21T01:34:58;5.00;5.00;4.00
73687;PMS7003;62257;48.376;-4.378;2022-08-21T01:37:24;6.00;4.25;4.00
73687;PMS7003;62257;48.376;-4.378;2022-08-21T01:39:50;6.25;4.00;3.75
73687;PMS7003;62257;48.376;-4.378;2022-08-21T01:42:15;7.50;4.00;3.00
73687;PMS7003;62257;48.376;-4.378;2022-08-21T01:44:41;5.00;4.00;2.25
73687;PMS7003;62257;48.376;-4.378;2022-08-21T01:47:08;5.00;4.25;3.75
73687;PMS7003;62257;48.376;-4.378;2022-08-21T01:49:35;4.25;4.25;3.00
73687;PMS7003;62257;48.376;-4.378;2022-08-21T01:52:03;3.00;3.00;2.00
73687;PMS7003;62257;48.376;-4.378;2022-08-21T01:54:29;4.00;4.00;3.25
73687;PMS7003;62257;48.376;-4.378;2022-08-21T01:56:55;5.00;5.00;4.00
73687;PMS7003;62257;48.376;-4.378;2022-08-21T01:59:22;4.25;4.00;3.00
73687;PMS7003;62257;48.376;-4.378;2022-08-21T02:01:49;6.50;4.25;4.00
73687;PMS7003;62257;48.376;-4.378;2022-08-21T02:04:15;7.50;4.00;3.00
73687;PMS7003;62257;48.376;-4.378;2022-08-21T02:06:41;4.50;4.25;3.75
73687;PMS7003;62257;48.376;-4.378;2022-08-21T02:09:07;5.75;4.00;3.00
73687;PMS7003;62257;48.376;-4.378;2022-08-21T02:11:35;6.00;4.00;3.00
73687;PMS7003;62257;48.376;-4.378;2022-08-21T02:14:01;7.50;5.50;3.25
73687;PMS7003;62257;48.376;-4.378;2022-08-21T02:16:27;4.50;3.50;2.75
73687;PMS7003;62257;48.376;-4.378;2022-08-21T02:18:53;7.50;3.75;3.00
73687;PMS7003;62257;48.376;-4.378;2022-08-21T02:21:18;5.50;3.50;2.75
73687;PMS7003;62257;48.376;-4.378;2022-08-21T02:23:44;6.50;3.25;3.00
73687;PMS7003;62257;48.376;-4.378;2022-08-21T02:26:10;4.75;4.75;3.25
73687;PMS7003;62257;48.376;-4.378;2022-08-21T02:28:36;9.50;4.00;3.25
73687;PMS7003;62257;48.376;-4.378;2022-08-21T02:31:03;4.25;4.00;3.25
73687;PMS7003;62257;48.376;-4.378;2022-08-21T02:33:29;4.25;4.00;3.00
73687;PMS7003;62257;48.376;-4.378;2022-08-21T02:35:55;5.00;4.75;3.50
73687;PMS7003;62257;48.376;-4.378;2022-08-21T02:38:22;7.00;5.00;3.50
73687;PMS7003;62257;48.376;-4.378;2022-08-21T02:40:50;7.00;5.00;4.00
73687;PMS7003;62257;48.376;-4.378;2022-08-21T02:43:17;5.75;4.50;2.75
73687;PMS7003;62257;48.376;-4.378;2022-08-21T02:45:44;5.50;3.25;3.00
73687;PMS7003;62257;48.376;-4.378;2022-08-21T02:48:12;5.75;4.50;3.25
73687;PMS7003;62257;48.376;-4.378;2022-08-21T02:50:41;3.50;3.25;2.25
73687;PMS7003;62257;48.376;-4.378;2022-08-21T02:53:09;6.25;3.75;3.00
73687;PMS7003;62257;48.376;-4.378;2022-08-21T02:55:36;4.75;3.75;3.00
73687;PMS7003;62257;48.376;-4.378;2022-08-21T02:58:02;6.75;4.00;4.00
73687;PMS7003;62257;48.376;-4.378;2022-08-21T03:00:33;4.75;3.50;3.00
73687;PMS7003;62257;48.376;-4.378;2022-08-21T03:02:59;5.00;4.50;4.00
73687;PMS7003;62257;48.376;-4.378;2022-08-21T03:05:26;4.75;3.50;3.00
73687;PMS7003;62257;48.376;-4.378;2022-08-21T03:07:53;3.75;3.75;3.00
73687;PMS7003;62257;48.376;-4.378;2022-08-21T03:10:19;5.00;5.00;3.25
73687;PMS7003;62257;48.376;-4.378;2022-08-21T03:12:46;6.50;3.75;3.00
73687;PMS7003;62257;48.376;-4.378;2022-08-21T03:15:15;8.50;5.00;2.50
73687;PMS7003;62257;48.376;-4.378;2022-08-21T03:17:42;7.50;4.00;2.75
73687;PMS7003;62257;48.376;-4.378;2022-08-21T03:20:08;4.75;4.75;3.00
73687;PMS7003;62257;48.376;-4.378;2022-08-21T03:22:34;6.00;4.00;3.50
73687;PMS7003;62257;48.376;-4.378;2022-08-21T03:25:00;5.00;4.25;3.00
73687;PMS7003;62257;48.376;-4.378;2022-08-21T03:27:26;5.25;3.25;3.00
73687;PMS7003;62257;48.376;-4.378;2022-08-21T03:29:53;4.50;3.00;2.50
73687;PMS7003;62257;48.376;-4.378;2022-08-21T03:32:19;6.50;4.50;3.75
73687;PMS7003;62257;48.376;-4.378;2022-08-21T03:34:44;3.75;3.75;2.25
73687;PMS7003;62257;48.376;-4.378;2022-08-21T03:37:11;7.25;6.00;3.25
73687;PMS7003;62257;48.376;-4.378;2022-08-21T03:39:36;7.25;4.00;3.50
73687;PMS7003;62257;48.376;-4.378;2022-08-21T03:42:02;4.25;4.25;3.25
73687;PMS7003;62257;48.376;-4.378;2022-08-21T03:44:28;6.50;4.00;3.00
73687;PMS7003;62257;48.376;-4.378;2022-08-21T03:46:54;3.50;3.50;2.50
73687;PMS7003;62257;48.376;-4.378;2022-08-21T03:49:20;5.25;3.00;2.75
73687;PMS7003;62257;48.376;-4.378;2022-08-21T03:51:46;5.50;5.50;4.00
73687;PMS7003;62257;48.376;-4.378;2022-08-21T03:54:11;6.50;5.00;4.00
73687;PMS7003;62257;48.376;-4.378;2022-08-21T03:56:37;3.00;3.00;3.00
73687;PMS7003;62257;48.376;-4.378;2022-08-21T03:59:02;8.25;4.75;3.50
73687;PMS7003;62257;48.376;-4.378;2022-08-21T04:01:28;5.25;4.00;3.00
73687;PMS7003;62257;48.376;-4.378;2022-08-21T04:03:54;7.75;5.00;3.50
73687;PMS7003;62257;48.376;-4.378;2022-08-21T04:06:20;4.00;4.00;3.00
73687;PMS7003;62257;48.376;-4.378;2022-08-21T04:08:45;3.75;3.25;2.75
73687;PMS7003;62257;48.376;-4.378;2022-08-21T04:11:10;4.50;3.25;2.00
73687;PMS7003;62257;48.376;-4.378;2022-08-21T04:13:36;4.00;4.00;3.00
73687;PMS7003;62257;48.376;-4.378;2022-08-21T04:16:03;3.75;3.75;2.25
73687;PMS7003;62257;48.376;-4.378;2022-08-21T04:18:29;4.50;3.75;3.50
73687;PMS7003;62257;48.376;-4.378;2022-08-21T04:20:55;4.00;4.00;2.00
73687;PMS7003;62257;48.376;-4.378;2022-08-21T04:23:22;3.00;2.75;2.00
73687;PMS7003;62257;48.376;-4.378;2022-08-21T04:25:48;4.75;3.75;2.50
73687;PMS7003;62257;48.376;-4.378;2022-08-21T04:28:14;7.25;4.25;3.25
73687;PMS7003;62257;48.376;-4.378;2022-08-21T04:30:40;5.00;5.00;3.75
73687;PMS7003;62257;48.376;-4.378;2022-08-21T04:33:05;5.75;4.00;3.00
73687;PMS7003;62257;48.376;-4.378;2022-08-21T04:35:31;7.00;3.00;3.00
73687;PMS7003;62257;48.376;-4.378;2022-08-21T04:37:56;4.00;2.00;2.00
73687;PMS7003;62257;48.376;-4.378;2022-08-21T04:40:23;7.00;4.75;4.25
73687;PMS7003;62257;48.376;-4.378;2022-08-21T04:47:49;6.25;4.50;3.50
73687;PMS7003;62257;48.376;-4.378;2022-08-21T04:50:16;4.50;2.25;2.00
73687;PMS7003;62257;48.376;-4.378;2022-08-21T04:52:42;4.75;4.25;3.00
73687;PMS7003;62257;48.376;-4.378;2022-08-21T04:55:08;5.50;5.00;4.00
73687;PMS7003;62257;48.376;-4.378;2022-08-21T04:57:34;5.00;3.00;2.00
73687;PMS7003;62257;48.376;-4.378;2022-08-21T05:00:00;5.00;3.00;3.00
73687;PMS7003;62257;48.376;-4.378;2022-08-21T05:02:28;6.25;4.50;3.00
73687;PMS7003;62257;48.376;-4.378;2022-08-21T05:04:53;4.50;2.50;2.00
73687;PMS7003;62257;48.376;-4.378;2022-08-21T05:07:21;9.75;5.25;3.50
73687;PMS7003;62257;48.376;-4.378;2022-08-21T05:09:48;4.50;3.50;2.75
73687;PMS7003;62257;48.376;-4.378;2022-08-21T05:12:14;7.25;4.75;4.00
73687;PMS7003;62257;48.376;-4.378;2022-08-21T05:14:40;5.75;4.75;3.75
73687;PMS7003;62257;48.376;-4.378;2022-08-21T05:17:07;8.25;4.00;3.25
73687;PMS7003;62257;48.376;-4.378;2022-08-21T05:19:32;5.50;4.00;3.00
73687;PMS7003;62257;48.376;-4.378;2022-08-21T05:21:58;7.25;5.75;4.50
73687;PMS7003;62257;48.376;-4.378;2022-08-21T05:24:23;5.75;4.00;4.00
73687;PMS7003;62257;48.376;-4.378;2022-08-21T05:26:49;5.75;3.75;3.25
73687;PMS7003;62257;48.376;-4.378;2022-08-21T05:29:15;5.00;4.00;3.00
73687;PMS7003;62257;48.376;-4.378;2022-08-21T05:31:41;5.50;5.00;4.00
73687;PMS7003;62257;48.376;-4.378;2022-08-21T05:34:07;7.00;4.75;3.50
73687;PMS7003;62257;48.376;-4.378;2022-08-21T05:36:33;4.75;4.25;4.00
73687;PMS7003;62257;48.376;-4.378;2022-08-21T05:38:58;4.75;4.25;3.00
73687;PMS7003;62257;48.376;-4.378;2022-08-21T05:41:24;3.00;3.00;2.00
73687;PMS7003;62257;48.376;-4.378;2022-08-21T05:43:49;5.75;4.25;3.25
73687;PMS7003;62257;48.376;-4.378;2022-08-21T05:46:15;4.00;4.00;3.75
73687;PMS7003;62257;48.376;-4.378;2022-08-21T05:48:40;7.25;5.00;3.00
73687;PMS7003;62257;48.376;-4.378;2022-08-21T05:51:06;4.00;4.00;3.50
73687;PMS7003;62257;48.376;-4.378;2022-08-21T05:53:34;6.75;4.00;3.00
73687;PMS7003;62257;48.376;-4.378;2022-08-21T05:56:00;3.50;2.00;1.25
73687;PMS7003;62257;48.376;-4.378;2022-08-21T05:58:28;6.75;4.00;3.00
73687;PMS7003;62257;48.376;-4.378;2022-08-21T06:00:54;3.25;3.25;2.00
73687;PMS7003;62257;48.376;-4.378;2022-08-21T06:03:21;7.25;3.50;3.00
73687;PMS7003;62257;48.376;-4.378;2022-08-21T06:05:48;5.00;4.00;3.75
73687;PMS7003;62257;48.376;-4.378;2022-08-21T06:08:14;4.75;4.00;3.00
73687;PMS7003;62257;48.376;-4.378;2022-08-21T06:10:41;4.25;4.25;4.00
73687;PMS7003;62257;48.376;-4.378;2022-08-21T06:13:06;4.00;2.00;2.00
73687;PMS7003;62257;48.376;-4.378;2022-08-21T06:15:32;4.25;2.00;1.25
73687;PMS7003;62257;48.376;-4.378;2022-08-21T06:17:57;5.25;4.25;3.00
73687;PMS7003;62257;48.376;-4.378;2022-08-21T06:20:23;4.75;3.75;3.00
73687;PMS7003;62257;48.376;-4.378;2022-08-21T06:22:48;4.75;4.00;3.00
73687;PMS7003;62257;48.376;-4.378;2022-08-21T06:25:14;4.00;4.00;3.00
73687;PMS7003;62257;48.376;-4.378;2022-08-21T06:27:39;5.00;3.50;3.00
73687;PMS7003;62257;48.376;-4.378;2022-08-21T06:30:05;4.50;3.00;3.00
73687;PMS7003;62257;48.376;-4.378;2022-08-21T06:32:31;3.00;2.00;2.00
73687;PMS7003;62257;48.376;-4.378;2022-08-21T06:34:56;3.50;3.50;3.00
73687;PMS7003;62257;48.376;-4.378;2022-08-21T06:37:22;3.00;3.00;2.75
73687;PMS7003;62257;48.376;-4.378;2022-08-21T06:39:47;4.00;3.00;2.75
73687;PMS7003;62257;48.376;-4.378;2022-08-21T06:42:16;4.00;4.00;3.00
73687;PMS7003;62257;48.376;-4.378;2022-08-21T06:44:42;3.00;3.00;2.25
73687;PMS7003;62257;48.376;-4.378;2022-08-21T06:47:08;4.00;2.75;1.75
73687;PMS7003;62257;48.376;-4.378;2022-08-21T06:49:34;4.25;3.50;2.50
73687;PMS7003;62257;48.376;-4.378;2022-08-21T06:52:00;3.50;3.25;3.00
73687;PMS7003;62257;48.376;-4.378;2022-08-21T06:54:26;5.50;2.75;2.50
73687;PMS7003;62257;48.376;-4.378;2022-08-21T06:56:51;5.50;5.25;3.00
73687;PMS7003;62257;48.376;-4.378;2022-08-21T06:59:17;3.00;2.75;1.50
73687;PMS7003;62257;48.376;-4.378;2022-08-21T07:01:42;3.00;2.75;2.50
73687;PMS7003;62257;48.376;-4.378;2022-08-21T07:04:08;2.75;2.75;2.00
73687;PMS7003;62257;48.376;-4.378;2022-08-21T07:06:33;3.75;3.75;2.50
73687;PMS7003;62257;48.376;-4.378;2022-08-21T07:08:59;3.25;2.00;2.00
73687;PMS7003;62257;48.376;-4.378;2022-08-21T07:11:26;4.50;3.25;2.25
73687;PMS7003;62257;48.376;-4.378;2022-08-21T07:13:51;4.25;4.25;2.75
73687;PMS7003;62257;48.376;-4.378;2022-08-21T07:16:17;3.25;3.25;2.25
73687;PMS7003;62257;48.376;-4.378;2022-08-21T07:18:44;3.50;3.25;2.50
73687;PMS7003;62257;48.376;-4.378;2022-08-21T07:21:09;4.00;4.00;3.00
73687;PMS7003;62257;48.376;-4.378;2022-08-21T07:23:36;6.50;4.25;3.75
73687;PMS7003;62257;48.376;-4.378;2022-08-21T07:26:04;7.75;4.00;3.25
73687;PMS7003;62257;48.376;-4.378;2022-08-21T07:28:30;3.25;2.25;1.50
73687;PMS7003;62257;48.376;-4.378;2022-08-21T07:30:57;4.25;3.50;2.50
73687;PMS7003;62257;48.376;-4.378;2022-08-21T07:33:24;3.50;3.00;2.25
73687;PMS7003;62257;48.376;-4.378;2022-08-21T07:35:51;5.25;4.00;3.25
73687;PMS7003;62257;48.376;-4.378;2022-08-21T07:38:17;4.75;3.50;2.50
73687;PMS7003;62257;48.376;-4.378;2022-08-21T07:40:44;3.00;3.00;2.50
73687;PMS7003;62257;48.376;-4.378;2022-08-21T07:43:10;4.00;3.50;2.50
73687;PMS7003;62257;48.376;-4.378;2022-08-21T07:45:36;3.25;3.25;2.25
73687;PMS7003;62257;48.376;-4.378;2022-08-21T07:48:01;5.00;4.75;4.00
73687;PMS7003;62257;48.376;-4.378;2022-08-21T07:50:27;3.50;2.25;2.25
73687;PMS7003;62257;48.376;-4.378;2022-08-21T07:52:52;5.75;4.00;3.00
73687;PMS7003;62257;48.376;-4.378;2022-08-21T07:55:19;3.50;3.50;2.75
73687;PMS7003;62257;48.376;-4.378;2022-08-21T07:57:46;4.00;3.00;2.00
73687;PMS7003;62257;48.376;-4.378;2022-08-21T08:00:14;4.00;4.00;3.00
73687;PMS7003;62257;48.376;-4.378;2022-08-21T08:02:43;4.00;2.50;2.00
73687;PMS7003;62257;48.376;-4.378;2022-08-21T08:05:10;1.75;1.75;1.50
73687;PMS7003;62257;48.376;-4.378;2022-08-21T08:07:36;3.75;3.25;3.00
73687;PMS7003;62257;48.376;-4.378;2022-08-21T08:10:03;6.50;3.75;2.25
73687;PMS7003;62257;48.376;-4.378;2022-08-21T08:12:32;2.75;2.75;2.75
73687;PMS7003;62257;48.376;-4.378;2022-08-21T08:14:59;4.50;3.00;2.75
73687;PMS7003;62257;48.376;-4.378;2022-08-21T08:17:25;3.50;3.50;3.00
73687;PMS7003;62257;48.376;-4.378;2022-08-21T08:19:51;3.25;2.75;2.25
73687;PMS7003;62257;48.376;-4.378;2022-08-21T08:22:19;4.75;3.50;2.75
73687;PMS7003;62257;48.376;-4.378;2022-08-21T08:24:47;3.75;2.75;2.50
73687;PMS7003;62257;48.376;-4.378;2022-08-21T08:27:13;3.00;3.00;2.00
73687;PMS7003;62257;48.376;-4.378;2022-08-21T08:29:39;3.75;2.75;2.25
73687;PMS7003;62257;48.376;-4.378;2022-08-21T08:32:05;3.75;3.75;3.00
73687;PMS7003;62257;48.376;-4.378;2022-08-21T08:34:32;4.50;2.75;2.00
73687;PMS7003;62257;48.376;-4.378;2022-08-21T08:37:02;2.75;2.25;2.00
73687;PMS7003;62257;48.376;-4.378;2022-08-21T08:39:28;2.00;2.00;2.00
73687;PMS7003;62257;48.376;-4.378;2022-08-21T08:42:14;2.00;2.00;2.00
73687;PMS7003;62257;48.376;-4.378;2022-08-21T08:44:49;2.00;2.00;1.00
73687;PMS7003;62257;48.376;-4.378;2022-08-21T08:47:22;2.75;2.75;2.50
73687;PMS7003;62257;48.376;-4.378;2022-08-21T08:50:14;2.75;2.75;2.25
73687;PMS7003;62257;48.376;-4.378;2022-08-21T08:53:02;3.00;1.75;1.75
73687;PMS7003;62257;48.376;-4.378;2022-08-21T08:58:19;1.00;1.00;1.00
73687;PMS7003;62257;48.376;-4.378;2022-08-21T09:00:48;2.50;1.75;1.50
73687;PMS7003;62257;48.376;-4.378;2022-08-21T09:03:16;4.00;3.00;2.00
73687;PMS7003;62257;48.376;-4.378;2022-08-21T09:05:50;2.00;2.00;1.00
73687;PMS7003;62257;48.376;-4.378;2022-08-21T09:11:52;3.50;3.00;2.25
73687;PMS7003;62257;48.376;-4.378;2022-08-21T09:20:29;3.50;3.25;3.00
73687;PMS7003;62257;48.376;-4.378;2022-08-21T09:28:36;5.25;4.00;3.00
73687;PMS7003;62257;48.376;-4.378;2022-08-21T09:31:06;5.25;4.00;3.00
73687;PMS7003;62257;48.376;-4.378;2022-08-21T09:33:35;4.50;3.00;2.50
73687;PMS7003;62257;48.376;-4.378;2022-08-21T09:36:00;4.25;3.25;3.00
73687;PMS7003;62257;48.376;-4.378;2022-08-21T09:38:27;3.00;3.00;2.00
73687;PMS7003;62257;48.376;-4.378;2022-08-21T09:41:08;3.00;2.50;2.25
73687;PMS7003;62257;48.376;-4.378;2022-08-21T09:43:35;7.25;3.00;3.00
73687;PMS7003;62257;48.376;-4.378;2022-08-21T09:46:06;2.00;2.00;2.00
73687;PMS7003;62257;48.376;-4.378;2022-08-21T09:48:39;5.50;4.00;3.00
73687;PMS7003;62257;48.376;-4.378;2022-08-21T09:51:16;1.75;1.75;1.75
73687;PMS7003;62257;48.376;-4.378;2022-08-21T09:53:45;3.75;3.00;2.75
73687;PMS7003;62257;48.376;-4.378;2022-08-21T09:59:41;5.25;2.25;2.25
73687;PMS7003;62257;48.376;-4.378;2022-08-21T10:02:30;5.00;3.50;3.00
73687;PMS7003;62257;48.376;-4.378;2022-08-21T10:07:26;3.00;3.00;2.00
73687;PMS7003;62257;48.376;-4.378;2022-08-21T10:15:17;3.50;3.50;2.50
73687;PMS7003;62257;48.376;-4.378;2022-08-21T10:20:19;2.75;2.75;2.00
73687;PMS7003;62257;48.376;-4.378;2022-08-21T10:25:14;4.25;2.75;2.00
73687;PMS7003;62257;48.376;-4.378;2022-08-21T10:30:31;4.75;3.00;2.25
73687;PMS7003;62257;48.376;-4.378;2022-08-21T10:36:02;3.75;3.75;2.50
73687;PMS7003;62257;48.376;-4.378;2022-08-21T10:48:59;2.25;2.25;2.00
73687;PMS7003;62257;48.376;-4.378;2022-08-21T10:54:52;3.25;3.25;3.00
73687;PMS7003;62257;48.376;-4.378;2022-08-21T11:00:07;3.00;3.00;3.00
73687;PMS7003;62257;48.376;-4.378;2022-08-21T11:02:47;2.00;2.00;1.75
73687;PMS7003;62257;48.376;-4.378;2022-08-21T11:08:12;3.00;2.00;2.00
73687;PMS7003;62257;48.376;-4.378;2022-08-21T11:10:44;4.00;2.75;2.00
73687;PMS7003;62257;48.376;-4.378;2022-08-21T11:13:22;2.25;2.25;2.00
73687;PMS7003;62257;48.376;-4.378;2022-08-21T11:18:39;3.00;2.00;2.00
73687;PMS7003;62257;48.376;-4.378;2022-08-21T11:23:42;2.00;2.00;2.00
73687;PMS7003;62257;48.376;-4.378;2022-08-21T11:26:13;4.25;2.00;1.25
73687;PMS7003;62257;48.376;-4.378;2022-08-21T11:28:46;2.50;2.50;2.25
73687;PMS7003;62257;48.376;-4.378;2022-08-21T11:48:11;2.00;1.75;1.00
73687;PMS7003;62257;48.376;-4.378;2022-08-21T11:50:51;4.50;2.75;1.50
73687;PMS7003;62257;48.376;-4.378;2022-08-21T11:53:28;1.25;1.25;1.00
73687;PMS7003;62257;48.376;-4.378;2022-08-21T11:56:11;2.00;0.25;0.25
73687;PMS7003;62257;48.376;-4.378;2022-08-21T11:58:45;2.75;1.00;1.00
73687;PMS7003;62257;48.376;-4.378;2022-08-21T12:01:21;2.50;2.00;2.00
73687;PMS7003;62257;48.376;-4.378;2022-08-21T12:04:07;1.50;1.00;0.75
73687;PMS7003;62257;48.376;-4.378;2022-08-21T12:06:41;3.50;2.00;2.00
73687;PMS7003;62257;48.376;-4.378;2022-08-21T12:09:09;2.00;1.00;0.50
73687;PMS7003;62257;48.376;-4.378;2022-08-21T12:12:06;1.00;0.25;0.25
73687;PMS7003;62257;48.376;-4.378;2022-08-21T12:14:48;2.00;2.00;2.00
73687;PMS7003;62257;48.376;-4.378;2022-08-21T12:17:22;1.75;1.00;1.00
73687;PMS7003;62257;48.376;-4.378;2022-08-21T12:20:00;0.25;0.25;0.25
73687;PMS7003;62257;48.376;-4.378;2022-08-21T12:22:40;2.00;2.00;1.25
73687;PMS7003;62257;48.376;-4.378;2022-08-21T12:25:07;3.00;1.00;1.00
73687;PMS7003;62257;48.376;-4.378;2022-08-21T12:27:50;2.50;1.25;1.00
73687;PMS7003;62257;48.376;-4.378;2022-08-21T12:30:37;0.75;0.75;0.75
73687;PMS7003;62257;48.376;-4.378;2022-08-21T12:33:16;0.75;0.75;0.50
73687;PMS7003;62257;48.376;-4.378;2022-08-21T12:36:15;1.00;1.00;1.00
73687;PMS7003;62257;48.376;-4.378;2022-08-21T12:38:59;3.50;2.00;1.00
73687;PMS7003;62257;48.376;-4.378;2022-08-21T12:41:34;0.75;0.75;0.75
73687;PMS7003;62257;48.376;-4.378;2022-08-21T12:44:16;2.00;1.00;1.00
73687;PMS7003;62257;48.376;-4.378;2022-08-21T12:49:34;2.00;1.00;1.00
73687;PMS7003;62257;48.376;-4.378;2022-08-21T12:52:05;2.75;1.00;1.00
73687;PMS7003;62257;48.376;-4.378;2022-08-21T12:54:41;1.00;1.00;0.50
73687;PMS7003;62257;48.376;-4.378;2022-08-21T12:57:08;0.00;0.00;0.00
73687;PMS7003;62257;48.376;-4.378;2022-08-21T12:59:43;1.25;1.25;1.00
73687;PMS7003;62257;48.376;-4.378;2022-08-21T13:02:16;2.75;1.00;1.00
73687;PMS7003;62257;48.376;-4.378;2022-08-21T13:04:44;2.00;2.00;1.00
73687;PMS7003;62257;48.376;-4.378;2022-08-21T13:07:12;2.00;1.00;1.00
73687;PMS7003;62257;48.376;-4.378;2022-08-21T13:09:46;0.00;0.00;0.00
73687;PMS7003;62257;48.376;-4.378;2022-08-21T13:12:16;3.00;1.00;1.00
73687;PMS7003;62257;48.376;-4.378;2022-08-21T13:14:44;1.75;1.00;1.00
73687;PMS7003;62257;48.376;-4.378;2022-08-21T13:17:15;1.50;1.50;1.25
73687;PMS7003;62257;48.376;-4.378;2022-08-21T13:19:51;2.00;2.00;1.00
73687;PMS7003;62257;48.376;-4.378;2022-08-21T13:22:18;1.75;1.75;1.50
73687;PMS7003;62257;48.376;-4.378;2022-08-21T13:24:46;2.00;0.25;0.00
73687;PMS7003;62257;48.376;-4.378;2022-08-21T13:27:20;1.50;0.75;0.75
73687;PMS7003;62257;48.376;-4.378;2022-08-21T13:30:12;1.75;1.00;1.00
73687;PMS7003;62257;48.376;-4.378;2022-08-21T13:32:43;0.50;0.50;0.00
73687;PMS7003;62257;48.376;-4.378;2022-08-21T13:35:22;1.00;1.00;0.75
73687;PMS7003;62257;48.376;-4.378;2022-08-21T13:37:50;1.00;1.00;1.00
73687;PMS7003;62257;48.376;-4.378;2022-08-21T13:40:18;1.00;1.00;1.00
73687;PMS7003;62257;48.376;-4.378;2022-08-21T13:42:49;1.00;1.00;1.00
73687;PMS7003;62257;48.376;-4.378;2022-08-21T13:45:21;0.25;0.00;0.00
73687;PMS7003;62257;48.376;-4.378;2022-08-21T13:47:49;1.00;1.00;0.00
73687;PMS7003;62257;48.376;-4.378;2022-08-21T13:50:16;2.00;0.50;0.00
73687;PMS7003;62257;48.376;-4.378;2022-08-21T13:53:01;1.00;1.00;1.00
73687;PMS7003;62257;48.376;-4.378;2022-08-21T13:55:42;1.50;1.50;1.00
73687;PMS7003;62257;48.376;-4.378;2022-08-21T13:58:09;1.00;1.00;1.00
73687;PMS7003;62257;48.376;-4.378;2022-08-21T14:00:46;1.00;1.00;0.75
73687;PMS7003;62257;48.376;-4.378;2022-08-21T14:03:15;1.00;1.00;1.00
73687;PMS7003;62257;48.376;-4.378;2022-08-21T14:06:11;1.00;1.00;1.00
73687;PMS7003;62257;48.376;-4.378;2022-08-21T14:08:46;1.00;1.00;1.00
73687;PMS7003;62257;48.376;-4.378;2022-08-21T14:11:21;1.75;1.00;1.00
73687;PMS7003;62257;48.376;-4.378;2022-08-21T14:16:21;1.00;1.00;0.75
73687;PMS7003;62257;48.376;-4.378;2022-08-21T14:18:52;3.00;2.00;1.00
73687;PMS7003;62257;48.376;-4.378;2022-08-21T14:21:28;2.00;2.00;1.75
73687;PMS7003;62257;48.376;-4.378;2022-08-21T14:24:24;2.00;1.00;1.00
73687;PMS7003;62257;48.376;-4.378;2022-08-21T14:26:50;1.00;1.00;1.00
73687;PMS7003;62257;48.376;-4.378;2022-08-21T14:29:26;2.00;2.00;1.50
73687;PMS7003;62257;48.376;-4.378;2022-08-21T14:31:54;2.00;1.00;1.00
73687;PMS7003;62257;48.376;-4.378;2022-08-21T14:34:25;0.00;0.00;0.00
73687;PMS7003;62257;48.376;-4.378;2022-08-21T14:36:52;1.00;0.75;0.75
73687;PMS7003;62257;48.376;-4.378;2022-08-21T14:39:18;1.00;1.00;1.00
73687;PMS7003;62257;48.376;-4.378;2022-08-21T14:41:44;1.00;1.00;1.00
73687;PMS7003;62257;48.376;-4.378;2022-08-21T14:44:11;2.75;2.00;1.75
73687;PMS7003;62257;48.376;-4.378;2022-08-21T14:46:38;2.00;1.00;1.00
73687;PMS7003;62257;48.376;-4.378;2022-08-21T14:49:04;2.50;1.50;1.00
73687;PMS7003;62257;48.376;-4.378;2022-08-21T14:51:29;1.00;1.00;1.00
73687;PMS7003;62257;48.376;-4.378;2022-08-21T14:53:55;2.25;2.25;1.00
73687;PMS7003;62257;48.376;-4.378;2022-08-21T14:56:20;2.00;1.00;1.00
73687;PMS7003;62257;48.376;-4.378;2022-08-21T14:58:48;2.00;1.75;1.00
73687;PMS7003;62257;48.376;-4.378;2022-08-21T15:01:17;1.50;1.50;1.25
73687;PMS7003;62257;48.376;-4.378;2022-08-21T15:03:45;1.00;1.00;1.00
73687;PMS7003;62257;48.376;-4.378;2022-08-21T15:06:13;1.00;1.00;1.00
73687;PMS7003;62257;48.376;-4.378;2022-08-21T15:08:39;1.00;1.00;1.00
73687;PMS7003;62257;48.376;-4.378;2022-08-21T15:11:04;2.75;1.75;1.75
73687;PMS7003;62257;48.376;-4.378;2022-08-21T15:13:31;0.25;0.25;0.00
73687;PMS7003;62257;48.376;-4.378;2022-08-21T15:15:57;1.25;1.00;0.50
73687;PMS7003;62257;48.376;-4.378;2022-08-21T15:18:24;2.00;2.00;1.00
73687;PMS7003;62257;48.376;-4.378;2022-08-21T15:20:51;1.00;1.00;1.00
73687;PMS7003;62257;48.376;-4.378;2022-08-21T15:23:16;1.00;1.00;1.00
73687;PMS7003;62257;48.376;-4.378;2022-08-21T15:25:43;1.50;1.00;1.00
73687;PMS7003;62257;48.376;-4.378;2022-08-21T15:28:10;1.25;1.25;1.00
73687;PMS7003;62257;48.376;-4.378;2022-08-21T15:30:37;3.00;1.00;1.00
73687;PMS7003;62257;48.376;-4.378;2022-08-21T15:33:04;2.75;1.00;1.00
73687;PMS7003;62257;48.376;-4.378;2022-08-21T15:35:30;0.50;0.50;0.00
73687;PMS7003;62257;48.376;-4.378;2022-08-21T15:37:56;1.00;1.00;1.00
73687;PMS7003;62257;48.376;-4.378;2022-08-21T15:40:22;1.00;1.00;1.00
73687;PMS7003;62257;48.376;-4.378;2022-08-21T15:42:48;1.25;1.00;1.00
73687;PMS7003;62257;48.376;-4.378;2022-08-21T15:45:17;0.75;0.00;0.00
73687;PMS7003;62257;48.376;-4.378;2022-08-21T15:47:43;1.00;1.00;1.00
73687;PMS7003;62257;48.376;-4.378;2022-08-21T15:50:11;1.00;1.00;1.00